sensor_id;sensor_type;location;lat;lon;timestamp;P1;durP1;ratioP1;P2;durP2;ratioP2
72920;SDS011;61064;51.654;5.476;2023-03-23T00:01:04;7.87;;;1.97;;
72920;SDS011;61064;51.654;5.476;2023-03-23T00:03:30;6.55;;;2.10;;
72920;SDS011;61064;51.654;5.476;2023-03-23T00:05:59;7.72;;;1.90;;
72920;SDS011;61064;51.654;5.476;2023-03-23T00:08:34;6.18;;;1.90;;
72920;SDS011;61064;51.654;5.476;2023-03-23T00:11:06;6.47;;;1.70;;
72920;SDS011;61064;51.654;5.476;2023-03-23T00:13:32;6.47;;;1.67;;
72920;SDS011;61064;51.654;5.476;2023-03-23T00:15:58;6.55;;;1.90;;
72920;SDS011;61064;51.654;5.476;2023-03-23T00:18:24;7.57;;;1.67;;
72920;SDS011;61064;51.654;5.476;2023-03-23T00:20:50;9.32;;;1.90;;
72920;SDS011;61064;51.654;5.476;2023-03-23T00:23:19;6.90;;;1.80;;
72920;SDS011;61064;51.654;5.476;2023-03-23T00:25:55;6.35;;;1.90;;
72920;SDS011;61064;51.654;5.476;2023-03-23T00:28:25;7.57;;;1.80;;
72920;SDS011;61064;51.654;5.476;2023-03-23T00:30:55;7.70;;;1.90;;
72920;SDS011;61064;51.654;5.476;2023-03-23T00:33:23;7.03;;;1.77;;
72920;SDS011;61064;51.654;5.476;2023-03-23T00:35:51;8.50;;;2.10;;
72920;SDS011;61064;51.654;5.476;2023-03-23T00:38:19;7.13;;;1.83;;
72920;SDS011;61064;51.654;5.476;2023-03-23T00:40:45;7.82;;;2.20;;
72920;SDS011;61064;51.654;5.476;2023-03-23T00:43:12;7.77;;;2.13;;
72920;SDS011;61064;51.654;5.476;2023-03-23T00:45:41;7.75;;;2.00;;
72920;SDS011;61064;51.654;5.476;2023-03-23T00:48:07;8.80;;;1.95;;
72920;SDS011;61064;51.654;5.476;2023-03-23T00:50:32;7.37;;;2.00;;
72920;SDS011;61064;51.654;5.476;2023-03-23T00:52:58;6.07;;;1.90;;
72920;SDS011;61064;51.654;5.476;2023-03-23T00:55:24;7.03;;;1.97;;
72920;SDS011;61064;51.654;5.476;2023-03-23T00:57:50;8.20;;;2.20;;
72920;SDS011;61064;51.654;5.476;2023-03-23T01:00:16;6.73;;;1.90;;
72920;SDS011;61064;51.654;5.476;2023-03-23T01:02:43;8.30;;;2.40;;
72920;SDS011;61064;51.654;5.476;2023-03-23T01:05:09;6.93;;;2.25;;
72920;SDS011;61064;51.654;5.476;2023-03-23T01:07:35;5.70;;;2.00;;
72920;SDS011;61064;51.654;5.476;2023-03-23T01:10:01;6.40;;;2.10;;
72920;SDS011;61064;51.654;5.476;2023-03-23T01:12:26;6.40;;;1.97;;
72920;SDS011;61064;51.654;5.476;2023-03-23T01:14:52;7.75;;;2.08;;
72920;SDS011;61064;51.654;5.476;2023-03-23T01:17:17;6.73;;;2.30;;
72920;SDS011;61064;51.654;5.476;2023-03-23T01:19:43;7.50;;;2.03;;
72920;SDS011;61064;51.654;5.476;2023-03-23T01:22:09;7.93;;;2.70;;
72920;SDS011;61064;51.654;5.476;2023-03-23T01:24:34;5.50;;;2.10;;
72920;SDS011;61064;51.654;5.476;2023-03-23T01:27:00;7.23;;;2.20;;
72920;SDS011;61064;51.654;5.476;2023-03-23T01:29:31;8.65;;;2.28;;
72920;SDS011;61064;51.654;5.476;2023-03-23T01:32:00;5.78;;;2.08;;
72920;SDS011;61064;51.654;5.476;2023-03-23T01:34:25;9.93;;;2.50;;
72920;SDS011;61064;51.654;5.476;2023-03-23T01:36:51;8.20;;;2.40;;
72920;SDS011;61064;51.654;5.476;2023-03-23T01:39:16;6.00;;;2.20;;
72920;SDS011;61064;51.654;5.476;2023-03-23T01:41:41;6.45;;;2.33;;
72920;SDS011;61064;51.654;5.476;2023-03-23T01:46:41;6.65;;;2.30;;
72920;SDS011;61064;51.654;5.476;2023-03-23T01:49:16;7.53;;;2.38;;
72920;SDS011;61064;51.654;5.476;2023-03-23T01:51:46;6.53;;;2.20;;
72920;SDS011;61064;51.654;5.476;2023-03-23T01:54:18;7.43;;;2.45;;
72920;SDS011;61064;51.654;5.476;2023-03-23T01:56:47;7.20;;;2.60;;
72920;SDS011;61064;51.654;5.476;2023-03-23T01:59:17;8.07;;;2.17;;
72920;SDS011;61064;51.654;5.476;2023-03-23T02:01:44;6.47;;;2.20;;
72920;SDS011;61064;51.654;5.476;2023-03-23T02:04:14;5.30;;;2.00;;
72920;SDS011;61064;51.654;5.476;2023-03-23T02:06:42;6.05;;;2.08;;
72920;SDS011;61064;51.654;5.476;2023-03-23T02:09:09;7.78;;;2.30;;
72920;SDS011;61064;51.654;5.476;2023-03-23T02:11:36;7.28;;;2.25;;
72920;SDS011;61064;51.654;5.476;2023-03-23T02:14:02;7.17;;;2.80;;
72920;SDS011;61064;51.654;5.476;2023-03-23T02:19:31;8.63;;;2.50;;
72920;SDS011;61064;51.654;5.476;2023-03-23T02:24:59;7.15;;;2.50;;
72920;SDS011;61064;51.654;5.476;2023-03-23T02:30:27;7.50;;;2.30;;
72920;SDS011;61064;51.654;5.476;2023-03-23T02:35:56;5.93;;;2.10;;
72920;SDS011;61064;51.654;5.476;2023-03-23T02:38:49;8.75;;;2.40;;
72920;SDS011;61064;51.654;5.476;2023-03-23T02:41:31;6.00;;;1.90;;
72920;SDS011;61064;51.654;5.476;2023-03-23T02:44:01;6.85;;;2.03;;
72920;SDS011;61064;51.654;5.476;2023-03-23T02:46:28;7.30;;;2.30;;
72920;SDS011;61064;51.654;5.476;2023-03-23T02:48:55;6.68;;;2.08;;
72920;SDS011;61064;51.654;5.476;2023-03-23T02:51:22;8.90;;;2.30;;
72920;SDS011;61064;51.654;5.476;2023-03-23T02:53:50;7.22;;;2.20;;
72920;SDS011;61064;51.654;5.476;2023-03-23T02:56:18;6.80;;;2.17;;
72920;SDS011;61064;51.654;5.476;2023-03-23T02:58:53;6.77;;;2.20;;
72920;SDS011;61064;51.654;5.476;2023-03-23T03:03:51;7.55;;;2.30;;
72920;SDS011;61064;51.654;5.476;2023-03-23T03:06:27;7.93;;;2.28;;
72920;SDS011;61064;51.654;5.476;2023-03-23T03:09:09;7.88;;;2.00;;
72920;SDS011;61064;51.654;5.476;2023-03-23T03:11:42;8.30;;;2.40;;
72920;SDS011;61064;51.654;5.476;2023-03-23T03:14:13;6.30;;;2.22;;
72920;SDS011;61064;51.654;5.476;2023-03-23T03:17:10;5.90;;;2.00;;
72920;SDS011;61064;51.654;5.476;2023-03-23T03:19:42;5.82;;;2.08;;
72920;SDS011;61064;51.654;5.476;2023-03-23T03:22:11;6.47;;;2.10;;
72920;SDS011;61064;51.654;5.476;2023-03-23T03:24:38;7.67;;;2.23;;
72920;SDS011;61064;51.654;5.476;2023-03-23T03:27:05;6.85;;;2.08;;
72920;SDS011;61064;51.654;5.476;2023-03-23T03:29:40;6.22;;;2.30;;
72920;SDS011;61064;51.654;5.476;2023-03-23T03:32:06;6.60;;;2.25;;
72920;SDS011;61064;51.654;5.476;2023-03-23T03:34:35;5.20;;;2.05;;
72920;SDS011;61064;51.654;5.476;2023-03-23T03:37:00;6.90;;;2.03;;
72920;SDS011;61064;51.654;5.476;2023-03-23T03:39:29;6.57;;;2.15;;
72920;SDS011;61064;51.654;5.476;2023-03-23T03:41:55;6.33;;;2.00;;
72920;SDS011;61064;51.654;5.476;2023-03-23T03:44:20;8.63;;;2.10;;
72920;SDS011;61064;51.654;5.476;2023-03-23T03:46:45;5.50;;;1.70;;
72920;SDS011;61064;51.654;5.476;2023-03-23T03:49:11;6.53;;;2.13;;
72920;SDS011;61064;51.654;5.476;2023-03-23T03:51:37;5.32;;;1.95;;
72920;SDS011;61064;51.654;5.476;2023-03-23T03:54:05;5.60;;;1.88;;
72920;SDS011;61064;51.654;5.476;2023-03-23T03:56:31;7.55;;;1.90;;
72920;SDS011;61064;51.654;5.476;2023-03-23T03:59:00;5.80;;;1.97;;
72920;SDS011;61064;51.654;5.476;2023-03-23T04:01:26;7.38;;;2.00;;
72920;SDS011;61064;51.654;5.476;2023-03-23T04:03:53;6.70;;;2.00;;
72920;SDS011;61064;51.654;5.476;2023-03-23T04:06:19;6.53;;;1.80;;
72920;SDS011;61064;51.654;5.476;2023-03-23T04:08:46;6.63;;;1.80;;
72920;SDS011;61064;51.654;5.476;2023-03-23T04:11:12;8.50;;;1.60;;
72920;SDS011;61064;51.654;5.476;2023-03-23T04:13:38;7.90;;;1.70;;
72920;SDS011;61064;51.654;5.476;2023-03-23T04:16:05;5.07;;;1.40;;
72920;SDS011;61064;51.654;5.476;2023-03-23T04:18:31;4.57;;;1.30;;
72920;SDS011;61064;51.654;5.476;2023-03-23T04:20:58;7.03;;;1.50;;
72920;SDS011;61064;51.654;5.476;2023-03-23T04:23:25;7.93;;;1.42;;
72920;SDS011;61064;51.654;5.476;2023-03-23T04:25:55;6.60;;;1.30;;
72920;SDS011;61064;51.654;5.476;2023-03-23T04:28:22;6.68;;;1.30;;
72920;SDS011;61064;51.654;5.476;2023-03-23T04:30:49;9.10;;;1.50;;
72920;SDS011;61064;51.654;5.476;2023-03-23T04:33:24;9.15;;;1.27;;
72920;SDS011;61064;51.654;5.476;2023-03-23T04:35:54;7.85;;;1.65;;
72920;SDS011;61064;51.654;5.476;2023-03-23T04:38:22;6.47;;;1.00;;
72920;SDS011;61064;51.654;5.476;2023-03-23T04:40:49;7.57;;;1.33;;
72920;SDS011;61064;51.654;5.476;2023-03-23T04:43:21;7.37;;;1.90;;
72920;SDS011;61064;51.654;5.476;2023-03-23T04:45:54;9.05;;;1.15;;
72920;SDS011;61064;51.654;5.476;2023-03-23T04:48:22;6.22;;;1.08;;
72920;SDS011;61064;51.654;5.476;2023-03-23T04:50:51;8.20;;;1.30;;
72920;SDS011;61064;51.654;5.476;2023-03-23T04:53:17;6.28;;;1.02;;
72920;SDS011;61064;51.654;5.476;2023-03-23T04:55:43;8.00;;;1.23;;
72920;SDS011;61064;51.654;5.476;2023-03-23T04:58:09;5.85;;;1.00;;
72920;SDS011;61064;51.654;5.476;2023-03-23T05:00:37;8.45;;;1.05;;
72920;SDS011;61064;51.654;5.476;2023-03-23T05:03:03;11.37;;;1.30;;
72920;SDS011;61064;51.654;5.476;2023-03-23T05:05:29;5.72;;;0.90;;
72920;SDS011;61064;51.654;5.476;2023-03-23T05:07:55;6.72;;;0.98;;
72920;SDS011;61064;51.654;5.476;2023-03-23T05:10:21;8.90;;;1.27;;
72920;SDS011;61064;51.654;5.476;2023-03-23T05:12:47;6.65;;;0.90;;
72920;SDS011;61064;51.654;5.476;2023-03-23T05:15:14;6.90;;;1.15;;
72920;SDS011;61064;51.654;5.476;2023-03-23T05:17:41;7.60;;;1.50;;
72920;SDS011;61064;51.654;5.476;2023-03-23T05:20:10;7.93;;;0.98;;
72920;SDS011;61064;51.654;5.476;2023-03-23T05:22:37;5.72;;;0.90;;
72920;SDS011;61064;51.654;5.476;2023-03-23T05:25:03;6.53;;;0.90;;
72920;SDS011;61064;51.654;5.476;2023-03-23T05:27:30;6.53;;;0.93;;
72920;SDS011;61064;51.654;5.476;2023-03-23T05:29:57;9.10;;;1.33;;
72920;SDS011;61064;51.654;5.476;2023-03-23T05:32:24;7.03;;;1.00;;
72920;SDS011;61064;51.654;5.476;2023-03-23T05:34:56;7.30;;;0.90;;
72920;SDS011;61064;51.654;5.476;2023-03-23T05:37:23;6.53;;;1.02;;
72920;SDS011;61064;51.654;5.476;2023-03-23T05:39:50;6.00;;;1.00;;
72920;SDS011;61064;51.654;5.476;2023-03-23T05:42:19;6.43;;;0.90;;
72920;SDS011;61064;51.654;5.476;2023-03-23T05:44:48;6.05;;;0.70;;
72920;SDS011;61064;51.654;5.476;2023-03-23T05:47:14;5.43;;;0.95;;
72920;SDS011;61064;51.654;5.476;2023-03-23T05:49:39;7.10;;;1.00;;
72920;SDS011;61064;51.654;5.476;2023-03-23T05:52:05;6.23;;;0.87;;
72920;SDS011;61064;51.654;5.476;2023-03-23T05:54:30;8.10;;;0.87;;
72920;SDS011;61064;51.654;5.476;2023-03-23T05:56:55;6.70;;;0.90;;
72920;SDS011;61064;51.654;5.476;2023-03-23T05:59:21;7.87;;;1.00;;
72920;SDS011;61064;51.654;5.476;2023-03-23T06:01:47;9.90;;;1.35;;
72920;SDS011;61064;51.654;5.476;2023-03-23T06:04:12;4.57;;;0.87;;
72920;SDS011;61064;51.654;5.476;2023-03-23T06:06:39;8.43;;;1.10;;
72920;SDS011;61064;51.654;5.476;2023-03-23T06:09:06;5.87;;;0.80;;
72920;SDS011;61064;51.654;5.476;2023-03-23T06:11:32;9.30;;;1.13;;
72920;SDS011;61064;51.654;5.476;2023-03-23T06:13:57;7.40;;;1.00;;
72920;SDS011;61064;51.654;5.476;2023-03-23T06:16:22;7.78;;;0.80;;
72920;SDS011;61064;51.654;5.476;2023-03-23T06:18:48;9.20;;;1.07;;
72920;SDS011;61064;51.654;5.476;2023-03-23T06:21:14;8.05;;;1.00;;
72920;SDS011;61064;51.654;5.476;2023-03-23T06:23:43;7.10;;;0.90;;
72920;SDS011;61064;51.654;5.476;2023-03-23T06:26:09;7.72;;;1.10;;
72920;SDS011;61064;51.654;5.476;2023-03-23T06:28:36;8.07;;;0.90;;
72920;SDS011;61064;51.654;5.476;2023-03-23T06:31:04;7.82;;;1.10;;
72920;SDS011;61064;51.654;5.476;2023-03-23T06:33:34;8.67;;;1.10;;
72920;SDS011;61064;51.654;5.476;2023-03-23T06:36:01;9.38;;;1.10;;
72920;SDS011;61064;51.654;5.476;2023-03-23T06:38:27;7.90;;;1.17;;
72920;SDS011;61064;51.654;5.476;2023-03-23T06:40:53;8.67;;;1.03;;
72920;SDS011;61064;51.654;5.476;2023-03-23T06:43:19;10.43;;;1.48;;
72920;SDS011;61064;51.654;5.476;2023-03-23T06:45:44;8.93;;;1.33;;
72920;SDS011;61064;51.654;5.476;2023-03-23T06:48:10;6.83;;;1.00;;
72920;SDS011;61064;51.654;5.476;2023-03-23T06:50:35;7.10;;;1.00;;
72920;SDS011;61064;51.654;5.476;2023-03-23T06:53:01;7.60;;;1.13;;
72920;SDS011;61064;51.654;5.476;2023-03-23T06:55:26;8.45;;;1.50;;
72920;SDS011;61064;51.654;5.476;2023-03-23T06:57:52;6.60;;;1.30;;
72920;SDS011;61064;51.654;5.476;2023-03-23T07:00:17;10.97;;;1.40;;
72920;SDS011;61064;51.654;5.476;2023-03-23T07:02:43;7.97;;;1.10;;
72920;SDS011;61064;51.654;5.476;2023-03-23T07:05:09;10.57;;;1.00;;
72920;SDS011;61064;51.654;5.476;2023-03-23T07:07:39;7.90;;;1.20;;
72920;SDS011;61064;51.654;5.476;2023-03-23T07:10:06;12.20;;;1.92;;
72920;SDS011;61064;51.654;5.476;2023-03-23T07:12:34;9.65;;;1.00;;
72920;SDS011;61064;51.654;5.476;2023-03-23T07:15:01;7.63;;;1.03;;
72920;SDS011;61064;51.654;5.476;2023-03-23T07:17:27;8.77;;;1.10;;
72920;SDS011;61064;51.654;5.476;2023-03-23T07:19:53;7.85;;;1.10;;
72920;SDS011;61064;51.654;5.476;2023-03-23T07:22:19;8.45;;;1.00;;
72920;SDS011;61064;51.654;5.476;2023-03-23T07:24:44;6.90;;;1.00;;
72920;SDS011;61064;51.654;5.476;2023-03-23T07:27:10;9.90;;;1.30;;
72920;SDS011;61064;51.654;5.476;2023-03-23T07:29:36;9.10;;;1.20;;
72920;SDS011;61064;51.654;5.476;2023-03-23T07:32:03;7.33;;;0.90;;
72920;SDS011;61064;51.654;5.476;2023-03-23T07:34:30;7.60;;;0.93;;
72920;SDS011;61064;51.654;5.476;2023-03-23T07:36:56;8.38;;;1.00;;
72920;SDS011;61064;51.654;5.476;2023-03-23T07:39:22;7.07;;;1.00;;
72920;SDS011;61064;51.654;5.476;2023-03-23T07:41:48;7.47;;;0.90;;
72920;SDS011;61064;51.654;5.476;2023-03-23T07:44:14;6.10;;;0.90;;
72920;SDS011;61064;51.654;5.476;2023-03-23T07:46:40;4.13;;;1.13;;
72920;SDS011;61064;51.654;5.476;2023-03-23T07:49:07;4.40;;;0.70;;
72920;SDS011;61064;51.654;5.476;2023-03-23T07:51:33;5.20;;;0.65;;
72920;SDS011;61064;51.654;5.476;2023-03-23T07:53:59;5.53;;;0.63;;
72920;SDS011;61064;51.654;5.476;2023-03-23T07:56:24;5.18;;;0.60;;
72920;SDS011;61064;51.654;5.476;2023-03-23T07:58:50;5.57;;;0.60;;
72920;SDS011;61064;51.654;5.476;2023-03-23T08:01:16;2.95;;;0.47;;
72920;SDS011;61064;51.654;5.476;2023-03-23T08:03:41;5.87;;;0.53;;
72920;SDS011;61064;51.654;5.476;2023-03-23T08:06:07;4.00;;;0.37;;
72920;SDS011;61064;51.654;5.476;2023-03-23T08:08:33;3.58;;;0.43;;
72920;SDS011;61064;51.654;5.476;2023-03-23T08:10:59;6.07;;;0.40;;
72920;SDS011;61064;51.654;5.476;2023-03-23T08:13:24;1.77;;;0.20;;
72920;SDS011;61064;51.654;5.476;2023-03-23T08:15:50;3.67;;;0.43;;
72920;SDS011;61064;51.654;5.476;2023-03-23T08:18:16;3.38;;;0.40;;
72920;SDS011;61064;51.654;5.476;2023-03-23T08:20:42;2.45;;;0.30;;
72920;SDS011;61064;51.654;5.476;2023-03-23T08:23:09;3.03;;;0.60;;
72920;SDS011;61064;51.654;5.476;2023-03-23T08:25:35;4.53;;;0.52;;
72920;SDS011;61064;51.654;5.476;2023-03-23T08:28:01;3.67;;;0.50;;
72920;SDS011;61064;51.654;5.476;2023-03-23T08:30:26;3.83;;;0.60;;
72920;SDS011;61064;51.654;5.476;2023-03-23T08:32:55;6.45;;;0.60;;
72920;SDS011;61064;51.654;5.476;2023-03-23T08:35:25;4.60;;;0.70;;
72920;SDS011;61064;51.654;5.476;2023-03-23T08:37:50;4.50;;;0.60;;
72920;SDS011;61064;51.654;5.476;2023-03-23T08:40:18;3.15;;;0.57;;
72920;SDS011;61064;51.654;5.476;2023-03-23T08:42:45;6.03;;;1.40;;
72920;SDS011;61064;51.654;5.476;2023-03-23T08:45:12;6.57;;;0.60;;
72920;SDS011;61064;51.654;5.476;2023-03-23T08:47:40;6.43;;;0.75;;
72920;SDS011;61064;51.654;5.476;2023-03-23T08:50:06;5.00;;;0.57;;
72920;SDS011;61064;51.654;5.476;2023-03-23T08:52:33;5.18;;;0.60;;
72920;SDS011;61064;51.654;5.476;2023-03-23T08:54:59;3.40;;;0.50;;
72920;SDS011;61064;51.654;5.476;2023-03-23T08:57:28;3.60;;;0.77;;
72920;SDS011;61064;51.654;5.476;2023-03-23T08:59:54;2.37;;;0.30;;
72920;SDS011;61064;51.654;5.476;2023-03-23T09:02:22;3.45;;;0.43;;
72920;SDS011;61064;51.654;5.476;2023-03-23T09:04:48;3.75;;;0.45;;
72920;SDS011;61064;51.654;5.476;2023-03-23T09:07:15;3.28;;;0.52;;
72920;SDS011;61064;51.654;5.476;2023-03-23T09:09:40;6.43;;;0.63;;
72920;SDS011;61064;51.654;5.476;2023-03-23T09:12:06;2.80;;;0.40;;
72920;SDS011;61064;51.654;5.476;2023-03-23T09:14:33;4.53;;;0.50;;
72920;SDS011;61064;51.654;5.476;2023-03-23T09:16:59;6.55;;;0.60;;
72920;SDS011;61064;51.654;5.476;2023-03-23T09:19:25;5.47;;;0.40;;
72920;SDS011;61064;51.654;5.476;2023-03-23T09:21:51;5.33;;;0.60;;
72920;SDS011;61064;51.654;5.476;2023-03-23T09:24:16;5.97;;;0.77;;
72920;SDS011;61064;51.654;5.476;2023-03-23T09:26:41;3.40;;;0.40;;
72920;SDS011;61064;51.654;5.476;2023-03-23T09:29:08;7.30;;;0.70;;
72920;SDS011;61064;51.654;5.476;2023-03-23T09:31:33;7.03;;;0.70;;
72920;SDS011;61064;51.654;5.476;2023-03-23T09:34:01;7.20;;;0.83;;
72920;SDS011;61064;51.654;5.476;2023-03-23T09:36:29;5.47;;;0.60;;
72920;SDS011;61064;51.654;5.476;2023-03-23T09:38:55;7.50;;;1.00;;
72920;SDS011;61064;51.654;5.476;2023-03-23T09:49:25;6.70;;;0.80;;
72920;SDS011;61064;51.654;5.476;2023-03-23T09:52:05;6.68;;;0.90;;
72920;SDS011;61064;51.654;5.476;2023-03-23T09:54:37;8.27;;;0.82;;
72920;SDS011;61064;51.654;5.476;2023-03-23T09:57:10;5.82;;;0.80;;
72920;SDS011;61064;51.654;5.476;2023-03-23T10:03:19;6.03;;;0.70;;
72920;SDS011;61064;51.654;5.476;2023-03-23T10:05:40;7.10;;;0.80;;
72920;SDS011;61064;51.654;5.476;2023-03-23T10:08:14;7.03;;;0.98;;
72920;SDS011;61064;51.654;5.476;2023-03-23T10:10:50;5.18;;;0.70;;
72920;SDS011;61064;51.654;5.476;2023-03-23T10:13:28;6.70;;;0.80;;
72920;SDS011;61064;51.654;5.476;2023-03-23T10:16:10;6.32;;;0.93;;
72920;SDS011;61064;51.654;5.476;2023-03-23T10:21:30;6.60;;;0.90;;
72920;SDS011;61064;51.654;5.476;2023-03-23T10:24:01;8.52;;;1.10;;
72920;SDS011;61064;51.654;5.476;2023-03-23T10:32:02;7.30;;;0.90;;
72920;SDS011;61064;51.654;5.476;2023-03-23T10:37:17;10.00;;;1.40;;
72920;SDS011;61064;51.654;5.476;2023-03-23T10:42:27;5.70;;;1.23;;
72920;SDS011;61064;51.654;5.476;2023-03-23T10:44:56;8.95;;;1.42;;
72920;SDS011;61064;51.654;5.476;2023-03-23T10:47:24;6.32;;;1.00;;
72920;SDS011;61064;51.654;5.476;2023-03-23T10:49:52;7.10;;;1.13;;
72920;SDS011;61064;51.654;5.476;2023-03-23T10:52:40;8.20;;;1.50;;
72920;SDS011;61064;51.654;5.476;2023-03-23T10:55:12;5.57;;;1.40;;
72920;SDS011;61064;51.654;5.476;2023-03-23T10:57:41;6.85;;;1.27;;
72920;SDS011;61064;51.654;5.476;2023-03-23T11:02:46;7.30;;;1.60;;
72920;SDS011;61064;51.654;5.476;2023-03-23T11:05:23;6.00;;;1.30;;
72920;SDS011;61064;51.654;5.476;2023-03-23T11:07:55;6.18;;;1.40;;
72920;SDS011;61064;51.654;5.476;2023-03-23T11:13:14;7.32;;;1.25;;
72920;SDS011;61064;51.654;5.476;2023-03-23T11:15:42;7.50;;;1.20;;
72920;SDS011;61064;51.654;5.476;2023-03-23T11:18:12;6.63;;;1.20;;
72920;SDS011;61064;51.654;5.476;2023-03-23T11:20:43;8.65;;;1.42;;
72920;SDS011;61064;51.654;5.476;2023-03-23T11:25:50;6.50;;;1.05;;
72920;SDS011;61064;51.654;5.476;2023-03-23T11:28:19;6.47;;;1.07;;
72920;SDS011;61064;51.654;5.476;2023-03-23T11:30:45;7.32;;;0.90;;
72920;SDS011;61064;51.654;5.476;2023-03-23T11:33:11;6.47;;;1.00;;
72920;SDS011;61064;51.654;5.476;2023-03-23T11:35:42;6.80;;;1.30;;
72920;SDS011;61064;51.654;5.476;2023-03-23T11:40:49;6.88;;;1.00;;
72920;SDS011;61064;51.654;5.476;2023-03-23T11:43:23;7.95;;;0.95;;
72920;SDS011;61064;51.654;5.476;2023-03-23T11:48:34;7.07;;;1.10;;
72920;SDS011;61064;51.654;5.476;2023-03-23T11:57:19;9.25;;;1.00;;
72920;SDS011;61064;51.654;5.476;2023-03-23T11:59:53;6.22;;;0.90;;
72920;SDS011;61064;51.654;5.476;2023-03-23T12:05:27;5.88;;;1.05;;
72920;SDS011;61064;51.654;5.476;2023-03-23T12:08:06;6.03;;;1.15;;
72920;SDS011;61064;51.654;5.476;2023-03-23T12:13:42;4.63;;;0.70;;
72920;SDS011;61064;51.654;5.476;2023-03-23T12:27:30;6.07;;;1.17;;
72920;SDS011;61064;51.654;5.476;2023-03-23T12:32:39;6.80;;;1.00;;
72920;SDS011;61064;51.654;5.476;2023-03-23T12:48:31;5.75;;;0.98;;
72920;SDS011;61064;51.654;5.476;2023-03-23T12:51:09;5.90;;;0.88;;
72920;SDS011;61064;51.654;5.476;2023-03-23T12:56:43;7.30;;;1.20;;
72920;SDS011;61064;51.654;5.476;2023-03-23T12:59:33;7.97;;;0.90;;
72920;SDS011;61064;51.654;5.476;2023-03-23T13:07:26;9.27;;;1.30;;
72920;SDS011;61064;51.654;5.476;2023-03-23T13:10:12;6.50;;;1.10;;
72920;SDS011;61064;51.654;5.476;2023-03-23T13:12:51;8.32;;;1.10;;
72920;SDS011;61064;51.654;5.476;2023-03-23T13:18:11;6.28;;;1.17;;
72920;SDS011;61064;51.654;5.476;2023-03-23T13:23:28;10.63;;;1.20;;
72920;SDS011;61064;51.654;5.476;2023-03-23T13:28:27;8.05;;;1.13;;
72920;SDS011;61064;51.654;5.476;2023-03-23T13:30:55;5.53;;;0.90;;
72920;SDS011;61064;51.654;5.476;2023-03-23T13:33:21;6.82;;;1.13;;
72920;SDS011;61064;51.654;5.476;2023-03-23T13:35:48;7.00;;;1.10;;
72920;SDS011;61064;51.654;5.476;2023-03-23T13:38:23;9.50;;;1.10;;
72920;SDS011;61064;51.654;5.476;2023-03-23T13:40:51;7.63;;;1.17;;
72920;SDS011;61064;51.654;5.476;2023-03-23T13:43:27;8.63;;;1.20;;
72920;SDS011;61064;51.654;5.476;2023-03-23T13:45:55;9.75;;;1.50;;
72920;SDS011;61064;51.654;5.476;2023-03-23T13:48:44;9.43;;;1.55;;
72920;SDS011;61064;51.654;5.476;2023-03-23T13:51:24;9.93;;;1.30;;
72920;SDS011;61064;51.654;5.476;2023-03-23T13:53:50;8.18;;;1.50;;
72920;SDS011;61064;51.654;5.476;2023-03-23T13:58:51;13.20;;;1.33;;
72920;SDS011;61064;51.654;5.476;2023-03-23T14:01:34;10.05;;;1.60;;
72920;SDS011;61064;51.654;5.476;2023-03-23T14:04:03;9.35;;;1.52;;
72920;SDS011;61064;51.654;5.476;2023-03-23T14:06:34;9.82;;;1.60;;
72920;SDS011;61064;51.654;5.476;2023-03-23T14:09:04;7.70;;;1.43;;
72920;SDS011;61064;51.654;5.476;2023-03-23T14:11:34;9.85;;;1.58;;
72920;SDS011;61064;51.654;5.476;2023-03-23T14:14:27;7.93;;;1.38;;
72920;SDS011;61064;51.654;5.476;2023-03-23T14:17:05;10.00;;;1.60;;
72920;SDS011;61064;51.654;5.476;2023-03-23T14:19:37;7.70;;;1.42;;
72920;SDS011;61064;51.654;5.476;2023-03-23T14:22:03;9.80;;;1.70;;
72920;SDS011;61064;51.654;5.476;2023-03-23T14:24:32;7.72;;;1.40;;
72920;SDS011;61064;51.654;5.476;2023-03-23T14:27:12;9.38;;;1.90;;
72920;SDS011;61064;51.654;5.476;2023-03-23T14:29:38;7.60;;;1.50;;
72920;SDS011;61064;51.654;5.476;2023-03-23T14:32:04;7.32;;;1.25;;
72920;SDS011;61064;51.654;5.476;2023-03-23T14:34:32;9.47;;;1.20;;
72920;SDS011;61064;51.654;5.476;2023-03-23T14:36:59;9.60;;;1.35;;
72920;SDS011;61064;51.654;5.476;2023-03-23T14:39:26;8.23;;;1.27;;
72920;SDS011;61064;51.654;5.476;2023-03-23T14:42:00;8.05;;;1.50;;
72920;SDS011;61064;51.654;5.476;2023-03-23T14:44:29;10.05;;;1.80;;
72920;SDS011;61064;51.654;5.476;2023-03-23T14:46:57;9.43;;;1.23;;
72920;SDS011;61064;51.654;5.476;2023-03-23T14:49:34;7.07;;;1.13;;
72920;SDS011;61064;51.654;5.476;2023-03-23T14:52:25;9.07;;;1.10;;
72920;SDS011;61064;51.654;5.476;2023-03-23T14:54:50;6.05;;;0.88;;
72920;SDS011;61064;51.654;5.476;2023-03-23T14:57:17;5.97;;;1.00;;
72920;SDS011;61064;51.654;5.476;2023-03-23T14:59:45;7.88;;;1.08;;
72920;SDS011;61064;51.654;5.476;2023-03-23T15:02:22;9.00;;;1.00;;
72920;SDS011;61064;51.654;5.476;2023-03-23T15:04:53;7.20;;;1.00;;
72920;SDS011;61064;51.654;5.476;2023-03-23T15:07:24;7.60;;;1.00;;
72920;SDS011;61064;51.654;5.476;2023-03-23T15:09:54;6.50;;;0.98;;
72920;SDS011;61064;51.654;5.476;2023-03-23T15:12:20;5.47;;;0.90;;
72920;SDS011;61064;51.654;5.476;2023-03-23T15:14:50;5.28;;;1.02;;
72920;SDS011;61064;51.654;5.476;2023-03-23T15:17:39;6.88;;;1.00;;
72920;SDS011;61064;51.654;5.476;2023-03-23T15:20:10;6.50;;;0.90;;
72920;SDS011;61064;51.654;5.476;2023-03-23T15:23:04;6.27;;;0.90;;
72920;SDS011;61064;51.654;5.476;2023-03-23T15:25:31;8.63;;;1.52;;
72920;SDS011;61064;51.654;5.476;2023-03-23T15:30:51;6.65;;;0.90;;
72920;SDS011;61064;51.654;5.476;2023-03-23T15:33:19;7.40;;;1.08;;
72920;SDS011;61064;51.654;5.476;2023-03-23T15:35:52;6.93;;;1.13;;
72920;SDS011;61064;51.654;5.476;2023-03-23T15:38:25;7.15;;;1.23;;
72920;SDS011;61064;51.654;5.476;2023-03-23T15:40:56;6.28;;;0.90;;
72920;SDS011;61064;51.654;5.476;2023-03-23T15:43:26;5.25;;;0.98;;
72920;SDS011;61064;51.654;5.476;2023-03-23T15:48:25;8.17;;;1.30;;
72920;SDS011;61064;51.654;5.476;2023-03-23T15:50:51;8.23;;;1.10;;
72920;SDS011;61064;51.654;5.476;2023-03-23T15:55:53;8.73;;;1.00;;
72920;SDS011;61064;51.654;5.476;2023-03-23T15:58:19;8.20;;;1.10;;
72920;SDS011;61064;51.654;5.476;2023-03-23T16:00:45;6.93;;;1.08;;
72920;SDS011;61064;51.654;5.476;2023-03-23T16:03:12;11.73;;;1.40;;
72920;SDS011;61064;51.654;5.476;2023-03-23T16:05:46;8.55;;;1.35;;
72920;SDS011;61064;51.654;5.476;2023-03-23T16:08:11;10.70;;;1.40;;
72920;SDS011;61064;51.654;5.476;2023-03-23T16:10:37;9.73;;;1.30;;
72920;SDS011;61064;51.654;5.476;2023-03-23T16:13:02;6.23;;;1.10;;
72920;SDS011;61064;51.654;5.476;2023-03-23T16:15:29;7.65;;;1.13;;
72920;SDS011;61064;51.654;5.476;2023-03-23T16:17:55;5.87;;;1.00;;
72920;SDS011;61064;51.654;5.476;2023-03-23T16:20:21;7.23;;;1.07;;
72920;SDS011;61064;51.654;5.476;2023-03-23T16:22:48;7.55;;;1.15;;
72920;SDS011;61064;51.654;5.476;2023-03-23T16:25:14;8.20;;;1.42;;
72920;SDS011;61064;51.654;5.476;2023-03-23T16:27:41;8.27;;;1.50;;
72920;SDS011;61064;51.654;5.476;2023-03-23T16:30:21;9.67;;;1.30;;
72920;SDS011;61064;51.654;5.476;2023-03-23T16:32:48;8.13;;;1.00;;
72920;SDS011;61064;51.654;5.476;2023-03-23T16:35:14;9.35;;;1.25;;
72920;SDS011;61064;51.654;5.476;2023-03-23T16:37:44;7.68;;;1.10;;
72920;SDS011;61064;51.654;5.476;2023-03-23T16:40:11;8.23;;;1.20;;
72920;SDS011;61064;51.654;5.476;2023-03-23T16:42:38;7.80;;;1.20;;
72920;SDS011;61064;51.654;5.476;2023-03-23T16:45:03;8.07;;;1.20;;
72920;SDS011;61064;51.654;5.476;2023-03-23T16:47:30;9.90;;;1.70;;
72920;SDS011;61064;51.654;5.476;2023-03-23T16:49:55;10.70;;;1.37;;
72920;SDS011;61064;51.654;5.476;2023-03-23T16:52:20;6.95;;;1.08;;
72920;SDS011;61064;51.654;5.476;2023-03-23T16:54:46;7.97;;;1.20;;
72920;SDS011;61064;51.654;5.476;2023-03-23T16:57:11;9.53;;;1.30;;
72920;SDS011;61064;51.654;5.476;2023-03-23T16:59:36;7.07;;;1.00;;